sensor_id;sensor_type;location;lat;lon;timestamp;P1;durP1;ratioP1;P2;durP2;ratioP2
20503;SDS011;10410;51.046;6.980;2022-07-29T00:03:56;0.60;;;0.37;;
20503;SDS011;10410;51.046;6.980;2022-07-29T00:10:56;0.30;;;0.30;;
20503;SDS011;10410;51.046;6.980;2022-07-29T00:17:57;0.30;;;0.30;;
20503;SDS011;10410;51.046;6.980;2022-07-29T00:24:57;0.50;;;0.50;;
20503;SDS011;10410;51.046;6.980;2022-07-29T00:31:57;3.00;;;0.53;;
20503;SDS011;10410;51.046;6.980;2022-07-29T00:38:58;0.20;;;0.20;;
20503;SDS011;10410;51.046;6.980;2022-07-29T00:45:59;0.30;;;0.30;;
20503;SDS011;10410;51.046;6.980;2022-07-29T00:52:59;0.83;;;0.40;;
20503;SDS011;10410;51.046;6.980;2022-07-29T01:00:01;0.33;;;0.30;;
20503;SDS011;10410;51.046;6.980;2022-07-29T01:07:03;0.20;;;0.20;;
20503;SDS011;10410;51.046;6.980;2022-07-29T01:14:05;0.30;;;0.30;;
20503;SDS011;10410;51.046;6.980;2022-07-29T01:35:54;0.20;;;0.20;;
20503;SDS011;10410;51.046;6.980;2022-07-29T01:42:55;0.30;;;0.30;;
20503;SDS011;10410;51.046;6.980;2022-07-29T01:49:58;0.77;;;0.50;;
20503;SDS011;10410;51.046;6.980;2022-07-29T01:57:01;0.37;;;0.37;;
20503;SDS011;10410;51.046;6.980;2022-07-29T02:04:05;0.27;;;0.27;;
20503;SDS011;10410;51.046;6.980;2022-07-29T02:11:07;4.63;;;0.77;;
20503;SDS011;10410;51.046;6.980;2022-07-29T02:18:09;0.37;;;0.37;;
20503;SDS011;10410;51.046;6.980;2022-07-29T02:25:14;0.50;;;0.50;;
20503;SDS011;10410;51.046;6.980;2022-07-29T02:32:16;0.37;;;0.37;;
20503;SDS011;10410;51.046;6.980;2022-07-29T02:39:19;0.40;;;0.40;;
20503;SDS011;10410;51.046;6.980;2022-07-29T02:46:22;0.73;;;0.37;;
20503;SDS011;10410;51.046;6.980;2022-07-29T02:53:48;0.53;;;0.50;;
20503;SDS011;10410;51.046;6.980;2022-07-29T03:00:51;6.30;;;0.97;;
20503;SDS011;10410;51.046;6.980;2022-07-29T03:07:54;1.87;;;1.00;;
20503;SDS011;10410;51.046;6.980;2022-07-29T03:14:58;4.33;;;0.90;;
20503;SDS011;10410;51.046;6.980;2022-07-29T03:22:01;1.37;;;0.87;;
20503;SDS011;10410;51.046;6.980;2022-07-29T03:29:02;0.60;;;0.60;;
20503;SDS011;10410;51.046;6.980;2022-07-29T03:36:02;0.70;;;0.70;;
20503;SDS011;10410;51.046;6.980;2022-07-29T03:43:03;1.40;;;0.77;;
20503;SDS011;10410;51.046;6.980;2022-07-29T03:50:05;1.63;;;0.80;;
20503;SDS011;10410;51.046;6.980;2022-07-29T03:57:10;2.87;;;0.83;;
20503;SDS011;10410;51.046;6.980;2022-07-29T04:04:11;6.47;;;0.87;;
20503;SDS011;10410;51.046;6.980;2022-07-29T04:11:13;1.40;;;1.00;;
20503;SDS011;10410;51.046;6.980;2022-07-29T04:18:13;1.70;;;1.00;;
20503;SDS011;10410;51.046;6.980;2022-07-29T04:25:14;5.73;;;1.00;;
20503;SDS011;10410;51.046;6.980;2022-07-29T04:32:14;9.23;;;1.30;;
20503;SDS011;10410;51.046;6.980;2022-07-29T04:39:15;2.97;;;0.50;;
20503;SDS011;10410;51.046;6.980;2022-07-29T04:46:22;2.90;;;0.83;;
20503;SDS011;10410;51.046;6.980;2022-07-29T04:53:23;0.67;;;0.67;;
20503;SDS011;10410;51.046;6.980;2022-07-29T05:00:24;0.87;;;0.60;;
20503;SDS011;10410;51.046;6.980;2022-07-29T05:07:31;1.07;;;0.50;;
20503;SDS011;10410;51.046;6.980;2022-07-29T05:14:32;8.20;;;1.37;;
20503;SDS011;10410;51.046;6.980;2022-07-29T05:21:32;1.40;;;0.60;;
20503;SDS011;10410;51.046;6.980;2022-07-29T05:28:33;1.50;;;1.00;;
20503;SDS011;10410;51.046;6.980;2022-07-29T05:35:35;1.70;;;0.97;;
20503;SDS011;10410;51.046;6.980;2022-07-29T05:42:37;1.87;;;0.60;;
20503;SDS011;10410;51.046;6.980;2022-07-29T05:49:38;0.70;;;0.70;;
20503;SDS011;10410;51.046;6.980;2022-07-29T05:56:38;3.10;;;0.73;;
20503;SDS011;10410;51.046;6.980;2022-07-29T06:03:39;1.50;;;0.90;;
20503;SDS011;10410;51.046;6.980;2022-07-29T06:10:40;12.10;;;1.17;;
20503;SDS011;10410;51.046;6.980;2022-07-29T06:17:41;0.43;;;0.40;;
20503;SDS011;10410;51.046;6.980;2022-07-29T06:25:00;0.43;;;0.40;;
20503;SDS011;10410;51.046;6.980;2022-07-29T06:32:01;0.73;;;0.50;;
20503;SDS011;10410;51.046;6.980;2022-07-29T06:39:06;1.50;;;0.77;;
20503;SDS011;10410;51.046;6.980;2022-07-29T06:46:11;2.13;;;0.60;;
20503;SDS011;10410;51.046;6.980;2022-07-29T06:53:14;1.40;;;0.57;;
20503;SDS011;10410;51.046;6.980;2022-07-29T07:00:14;0.40;;;0.40;;
20503;SDS011;10410;51.046;6.980;2022-07-29T07:07:14;0.73;;;0.60;;
20503;SDS011;10410;51.046;6.980;2022-07-29T07:14:17;0.60;;;0.40;;
20503;SDS011;10410;51.046;6.980;2022-07-29T07:21:18;0.40;;;0.40;;
20503;SDS011;10410;51.046;6.980;2022-07-29T07:28:18;2.90;;;1.13;;
20503;SDS011;10410;51.046;6.980;2022-07-29T07:35:23;1.10;;;0.63;;
20503;SDS011;10410;51.046;6.980;2022-07-29T07:42:24;2.20;;;0.90;;
20503;SDS011;10410;51.046;6.980;2022-07-29T07:49:25;2.40;;;0.73;;
20503;SDS011;10410;51.046;6.980;2022-07-29T07:56:25;2.47;;;0.83;;
20503;SDS011;10410;51.046;6.980;2022-07-29T08:03:33;4.73;;;1.17;;
20503;SDS011;10410;51.046;6.980;2022-07-29T08:10:34;4.73;;;1.10;;
20503;SDS011;10410;51.046;6.980;2022-07-29T08:17:53;7.23;;;1.30;;
20503;SDS011;10410;51.046;6.980;2022-07-29T08:24:53;6.30;;;1.53;;
20503;SDS011;10410;51.046;6.980;2022-07-29T08:31:55;4.67;;;1.57;;
20503;SDS011;10410;51.046;6.980;2022-07-29T08:38:56;4.93;;;1.33;;
20503;SDS011;10410;51.046;6.980;2022-07-29T08:45:57;2.13;;;1.17;;
20503;SDS011;10410;51.046;6.980;2022-07-29T08:52:58;6.87;;;1.30;;
20503;SDS011;10410;51.046;6.980;2022-07-29T09:00:05;11.83;;;1.40;;
20503;SDS011;10410;51.046;6.980;2022-07-29T09:07:11;6.33;;;1.97;;
20503;SDS011;10410;51.046;6.980;2022-07-29T09:14:15;4.03;;;1.17;;
20503;SDS011;10410;51.046;6.980;2022-07-29T09:21:16;6.77;;;1.93;;
20503;SDS011;10410;51.046;6.980;2022-07-29T09:28:41;3.97;;;1.60;;
20503;SDS011;10410;51.046;6.980;2022-07-29T09:35:45;3.53;;;1.53;;
20503;SDS011;10410;51.046;6.980;2022-07-29T09:42:56;4.90;;;1.70;;
20503;SDS011;10410;51.046;6.980;2022-07-29T09:49:57;7.23;;;1.47;;
20503;SDS011;10410;51.046;6.980;2022-07-29T09:56:59;7.07;;;1.73;;
20503;SDS011;10410;51.046;6.980;2022-07-29T10:04:00;6.17;;;2.30;;
20503;SDS011;10410;51.046;6.980;2022-07-29T10:11:13;5.93;;;1.47;;
20503;SDS011;10410;51.046;6.980;2022-07-29T10:18:16;9.50;;;2.03;;
20503;SDS011;10410;51.046;6.980;2022-07-29T10:25:19;13.63;;;2.27;;
20503;SDS011;10410;51.046;6.980;2022-07-29T10:47:42;7.83;;;2.13;;
20503;SDS011;10410;51.046;6.980;2022-07-29T10:54:45;8.63;;;2.13;;
20503;SDS011;10410;51.046;6.980;2022-07-29T11:01:48;9.10;;;2.07;;
20503;SDS011;10410;51.046;6.980;2022-07-29T11:16:19;3.43;;;1.43;;
20503;SDS011;10410;51.046;6.980;2022-07-29T11:23:28;2.33;;;0.87;;
20503;SDS011;10410;51.046;6.980;2022-07-29T11:30:49;0.97;;;0.80;;
20503;SDS011;10410;51.046;6.980;2022-07-29T11:45:22;2.38;;;1.13;;
20503;SDS011;10410;51.046;6.980;2022-07-29T11:52:45;1.70;;;0.85;;
20503;SDS011;10410;51.046;6.980;2022-07-29T11:59:48;0.68;;;0.40;;
20503;SDS011;10410;51.046;6.980;2022-07-29T12:06:50;0.85;;;0.68;;
20503;SDS011;10410;51.046;6.980;2022-07-29T12:13:51;2.60;;;1.02;;
20503;SDS011;10410;51.046;6.980;2022-07-29T12:20:58;0.60;;;0.60;;
20503;SDS011;10410;51.046;6.980;2022-07-29T12:28:05;2.33;;;1.08;;
20503;SDS011;10410;51.046;6.980;2022-07-29T12:35:18;2.50;;;0.73;;
20503;SDS011;10410;51.046;6.980;2022-07-29T12:42:19;1.23;;;0.65;;
20503;SDS011;10410;51.046;6.980;2022-07-29T12:49:22;0.40;;;0.40;;
20503;SDS011;10410;51.046;6.980;2022-07-29T12:56:23;0.47;;;0.45;;
20503;SDS011;10410;51.046;6.980;2022-07-29T13:03:52;0.70;;;0.70;;
20503;SDS011;10410;51.046;6.980;2022-07-29T13:10:56;1.35;;;0.60;;
20503;SDS011;10410;51.046;6.980;2022-07-29T13:17:57;0.35;;;0.35;;
20503;SDS011;10410;51.046;6.980;2022-07-29T13:24:58;0.73;;;0.73;;
20503;SDS011;10410;51.046;6.980;2022-07-29T13:32:03;0.95;;;0.43;;
20503;SDS011;10410;51.046;6.980;2022-07-29T13:39:04;0.93;;;0.75;;
20503;SDS011;10410;51.046;6.980;2022-07-29T13:46:04;0.85;;;0.63;;
20503;SDS011;10410;51.046;6.980;2022-07-29T13:53:05;0.63;;;0.55;;
20503;SDS011;10410;51.046;6.980;2022-07-29T14:00:06;0.98;;;0.85;;
20503;SDS011;10410;51.046;6.980;2022-07-29T14:07:10;1.95;;;0.93;;
20503;SDS011;10410;51.046;6.980;2022-07-29T14:14:15;9.27;;;0.63;;
20503;SDS011;10410;51.046;6.980;2022-07-29T14:21:16;0.47;;;0.45;;
20503;SDS011;10410;51.046;6.980;2022-07-29T14:28:17;0.32;;;0.32;;
20503;SDS011;10410;51.046;6.980;2022-07-29T14:35:18;0.65;;;0.50;;
20503;SDS011;10410;51.046;6.980;2022-07-29T14:42:18;1.30;;;0.52;;
20503;SDS011;10410;51.046;6.980;2022-07-29T14:49:19;1.05;;;0.80;;
20503;SDS011;10410;51.046;6.980;2022-07-29T14:56:20;0.32;;;0.32;;
20503;SDS011;10410;51.046;6.980;2022-07-29T15:03:36;3.90;;;1.02;;
20503;SDS011;10410;51.046;6.980;2022-07-29T15:10:36;3.55;;;1.27;;
20503;SDS011;10410;51.046;6.980;2022-07-29T15:17:37;0.68;;;0.50;;
20503;SDS011;10410;51.046;6.980;2022-07-29T15:24:37;0.93;;;0.40;;
20503;SDS011;10410;51.046;6.980;2022-07-29T15:31:37;0.45;;;0.35;;
20503;SDS011;10410;51.046;6.980;2022-07-29T15:38:39;0.70;;;0.57;;
20503;SDS011;10410;51.046;6.980;2022-07-29T15:45:41;0.73;;;0.50;;
20503;SDS011;10410;51.046;6.980;2022-07-29T15:53:02;4.63;;;1.27;;
20503;SDS011;10410;51.046;6.980;2022-07-29T16:00:03;1.42;;;0.60;;
20503;SDS011;10410;51.046;6.980;2022-07-29T16:07:06;1.27;;;0.80;;
20503;SDS011;10410;51.046;6.980;2022-07-29T16:14:08;5.82;;;1.02;;
20503;SDS011;10410;51.046;6.980;2022-07-29T16:21:10;1.15;;;0.50;;
20503;SDS011;10410;51.046;6.980;2022-07-29T16:28:11;0.73;;;0.63;;
20503;SDS011;10410;51.046;6.980;2022-07-29T16:35:12;0.40;;;0.32;;
20503;SDS011;10410;51.046;6.980;2022-07-29T16:42:12;0.82;;;0.68;;
20503;SDS011;10410;51.046;6.980;2022-07-29T16:49:33;0.68;;;0.50;;
20503;SDS011;10410;51.046;6.980;2022-07-29T16:56:33;1.75;;;0.80;;
20503;SDS011;10410;51.046;6.980;2022-07-29T17:03:34;0.85;;;0.68;;
20503;SDS011;10410;51.046;6.980;2022-07-29T17:10:34;1.08;;;0.65;;
20503;SDS011;10410;51.046;6.980;2022-07-29T17:17:36;0.95;;;0.70;;
20503;SDS011;10410;51.046;6.980;2022-07-29T17:24:54;3.30;;;1.83;;
20503;SDS011;10410;51.046;6.980;2022-07-29T17:31:55;1.05;;;0.98;;
20503;SDS011;10410;51.046;6.980;2022-07-29T17:39:00;13.65;;;2.95;;
20503;SDS011;10410;51.046;6.980;2022-07-29T17:46:03;9.25;;;2.85;;
20503;SDS011;10410;51.046;6.980;2022-07-29T17:53:04;3.28;;;1.05;;
20503;SDS011;10410;51.046;6.980;2022-07-29T18:00:15;2.15;;;1.48;;
20503;SDS011;10410;51.046;6.980;2022-07-29T18:07:16;0.60;;;0.60;;
20503;SDS011;10410;51.046;6.980;2022-07-29T18:14:17;0.65;;;0.60;;
20503;SDS011;10410;51.046;6.980;2022-07-29T18:21:18;3.50;;;1.05;;
20503;SDS011;10410;51.046;6.980;2022-07-29T18:28:38;0.40;;;0.40;;
20503;SDS011;10410;51.046;6.980;2022-07-29T18:35:38;1.08;;;0.50;;
20503;SDS011;10410;51.046;6.980;2022-07-29T18:42:40;3.50;;;0.40;;
20503;SDS011;10410;51.046;6.980;2022-07-29T18:49:40;1.63;;;0.73;;
20503;SDS011;10410;51.046;6.980;2022-07-29T18:56:41;0.47;;;0.28;;
20503;SDS011;10410;51.046;6.980;2022-07-29T19:03:42;0.50;;;0.40;;
20503;SDS011;10410;51.046;6.980;2022-07-29T19:10:42;1.55;;;0.73;;
20503;SDS011;10410;51.046;6.980;2022-07-29T19:17:43;0.45;;;0.45;;
20503;SDS011;10410;51.046;6.980;2022-07-29T19:24:44;0.32;;;0.30;;
20503;SDS011;10410;51.046;6.980;2022-07-29T19:31:45;0.40;;;0.40;;
20503;SDS011;10410;51.046;6.980;2022-07-29T19:38:46;2.00;;;0.70;;
20503;SDS011;10410;51.046;6.980;2022-07-29T19:45:46;7.05;;;1.38;;
20503;SDS011;10410;51.046;6.980;2022-07-29T19:52:47;0.30;;;0.30;;
20503;SDS011;10410;51.046;6.980;2022-07-29T19:59:47;1.17;;;0.30;;
20503;SDS011;10410;51.046;6.980;2022-07-29T20:06:48;0.65;;;0.60;;
20503;SDS011;10410;51.046;6.980;2022-07-29T20:13:49;0.95;;;0.68;;
20503;SDS011;10410;51.046;6.980;2022-07-29T20:20:49;1.02;;;0.47;;
20503;SDS011;10410;51.046;6.980;2022-07-29T20:27:50;0.57;;;0.43;;
20503;SDS011;10410;51.046;6.980;2022-07-29T20:34:53;0.47;;;0.47;;
20503;SDS011;10410;51.046;6.980;2022-07-29T20:41:54;1.35;;;0.40;;
20503;SDS011;10410;51.046;6.980;2022-07-29T20:48:54;0.73;;;0.70;;
20503;SDS011;10410;51.046;6.980;2022-07-29T20:55:55;0.47;;;0.47;;
20503;SDS011;10410;51.046;6.980;2022-07-29T21:02:55;0.30;;;0.30;;
20503;SDS011;10410;51.046;6.980;2022-07-29T21:09:56;1.45;;;0.52;;
20503;SDS011;10410;51.046;6.980;2022-07-29T21:16:57;0.73;;;0.55;;
20503;SDS011;10410;51.046;6.980;2022-07-29T21:23:58;0.40;;;0.40;;
20503;SDS011;10410;51.046;6.980;2022-07-29T21:31:03;1.60;;;0.65;;
20503;SDS011;10410;51.046;6.980;2022-07-29T21:38:08;0.52;;;0.40;;
20503;SDS011;10410;51.046;6.980;2022-07-29T21:45:08;0.40;;;0.40;;
20503;SDS011;10410;51.046;6.980;2022-07-29T21:52:10;1.15;;;0.63;;
20503;SDS011;10410;51.046;6.980;2022-07-29T21:59:11;0.93;;;0.70;;
20503;SDS011;10410;51.046;6.980;2022-07-29T22:06:11;0.43;;;0.43;;
20503;SDS011;10410;51.046;6.980;2022-07-29T22:13:18;0.73;;;0.70;;
20503;SDS011;10410;51.046;6.980;2022-07-29T22:20:19;0.63;;;0.63;;
20503;SDS011;10410;51.046;6.980;2022-07-29T22:27:19;0.50;;;0.50;;
20503;SDS011;10410;51.046;6.980;2022-07-29T22:34:20;1.63;;;1.10;;
20503;SDS011;10410;51.046;6.980;2022-07-29T22:41:21;0.40;;;0.40;;
20503;SDS011;10410;51.046;6.980;2022-07-29T22:48:21;0.63;;;0.60;;
20503;SDS011;10410;51.046;6.980;2022-07-29T22:55:22;19.17;;;0.97;;
20503;SDS011;10410;51.046;6.980;2022-07-29T23:02:23;1.63;;;0.87;;
20503;SDS011;10410;51.046;6.980;2022-07-29T23:09:23;0.60;;;0.53;;
20503;SDS011;10410;51.046;6.980;2022-07-29T23:16:24;1.90;;;1.03;;
20503;SDS011;10410;51.046;6.980;2022-07-29T23:23:25;1.03;;;0.70;;
20503;SDS011;10410;51.046;6.980;2022-07-29T23:30:31;0.97;;;0.80;;
20503;SDS011;10410;51.046;6.980;2022-07-29T23:37:32;3.03;;;1.03;;
20503;SDS011;10410;51.046;6.980;2022-07-29T23:44:36;1.37;;;0.83;;
20503;SDS011;10410;51.046;6.980;2022-07-29T23:51:37;1.73;;;1.47;;
20503;SDS011;10410;51.046;6.980;2022-07-29T23:58:37;1.60;;;0.97;;
